createdAt,value
2023-03-27T00:01:28.476Z,1035.2
2023-03-27T00:03:12.187Z,1032.6
2023-03-27T00:04:55.875Z,1028.2
2023-03-27T00:06:39.574Z,1026.2
2023-03-27T00:08:23.282Z,1029.3
2023-03-27T00:10:06.996Z,1029.6
2023-03-27T00:11:50.698Z,1030.2
2023-03-27T00:13:34.388Z,1030.7
2023-03-27T00:15:18.102Z,1031
2023-03-27T00:17:01.810Z,1028.2
2023-03-27T00:18:45.507Z,1028.6
2023-03-27T00:20:29.211Z,1027.5
2023-03-27T00:22:12.907Z,1028.2
2023-03-27T00:23:56.633Z,1024.5
2023-03-27T00:25:40.327Z,1023.2
2023-03-27T00:27:24.021Z,1023.3
2023-03-27T00:29:07.725Z,1022.5
2023-03-27T00:30:51.432Z,1012.8
2023-03-27T00:32:35.130Z,1004
2023-03-27T00:34:18.900Z,1009.5
2023-03-27T00:36:02.542Z,1011
2023-03-27T00:37:46.232Z,1013.4
2023-03-27T00:39:29.929Z,1015.2
2023-03-27T00:41:13.647Z,1017.1
2023-03-27T00:42:57.352Z,1019.3
2023-03-27T00:44:41.059Z,1018
2023-03-27T00:46:24.743Z,1017.4
2023-03-27T00:48:08.453Z,1019.7
2023-03-27T00:49:52.163Z,1018.9
2023-03-27T00:51:35.851Z,1021.2
2023-03-27T00:53:19.560Z,1020.4
2023-03-27T00:55:03.252Z,1019.4
2023-03-27T00:56:46.961Z,1016.9
2023-03-27T00:58:30.676Z,1018.7
2023-03-27T01:00:14.366Z,1023.3
2023-03-27T01:01:58.071Z,1020
2023-03-27T01:03:41.777Z,1019.2
2023-03-27T01:05:25.470Z,1021.7
2023-03-27T01:07:09.188Z,1018.1
2023-03-27T01:08:52.930Z,1017.7
2023-03-27T01:10:36.622Z,1019
2023-03-27T01:12:20.323Z,1022.1
2023-03-27T01:14:03.991Z,1026.7
2023-03-27T01:15:47.700Z,1025.3
2023-03-27T01:17:31.400Z,1020.8
2023-03-27T01:19:15.106Z,1014.4
2023-03-27T01:20:58.971Z,1013.3
2023-03-27T01:22:42.563Z,1014
2023-03-27T01:24:26.214Z,1016.5
2023-03-27T01:26:09.921Z,1011.6
2023-03-27T01:27:53.617Z,1008.9
2023-03-27T01:29:37.322Z,1006.9
2023-03-27T01:31:21.024Z,1008.3
2023-03-27T01:33:04.723Z,1007.9
2023-03-27T01:34:48.430Z,1004.5
2023-03-27T01:36:32.128Z,999.5
2023-03-27T01:38:15.829Z,997.6
2023-03-27T01:39:59.541Z,1000.5
2023-03-27T01:41:43.249Z,1004.5
2023-03-27T01:43:26.956Z,1006
2023-03-27T01:45:10.647Z,1003.1
2023-03-27T01:46:54.345Z,1002.9
2023-03-27T01:48:38.051Z,1002.6
2023-03-27T01:50:21.769Z,1004.8
2023-03-27T01:52:05.452Z,1004.9
2023-03-27T01:53:49.161Z,1004.8
2023-03-27T01:55:32.876Z,1001.7
2023-03-27T01:57:16.567Z,1001.3
2023-03-27T01:59:00.265Z,1000.6
2023-03-27T02:00:43.973Z,998.6
2023-03-27T02:02:27.680Z,994.8
2023-03-27T02:04:11.389Z,991
2023-03-27T02:05:55.074Z,988.6
2023-03-27T02:07:38.788Z,986.9
2023-03-27T02:09:22.482Z,986
2023-03-27T02:11:06.194Z,984.1
2023-03-27T02:12:49.889Z,983.1
2023-03-27T02:14:33.615Z,979.5
2023-03-27T02:16:17.295Z,978.2
2023-03-27T02:18:01.015Z,979.4
2023-03-27T02:19:44.702Z,975.8
2023-03-27T02:21:28.427Z,975.6
2023-03-27T02:23:12.106Z,976.2
2023-03-27T02:24:55.806Z,972.1
2023-03-27T02:26:39.634Z,971
2023-03-27T02:28:23.258Z,969.7
2023-03-27T02:30:06.906Z,969.1
2023-03-27T02:31:50.612Z,970.8
2023-03-27T02:33:34.311Z,973.1
2023-03-27T02:35:18.020Z,971.4
2023-03-27T02:37:01.722Z,970
2023-03-27T02:38:45.418Z,970.3
2023-03-27T02:40:29.127Z,963.2
2023-03-27T02:42:12.823Z,958.5
2023-03-27T02:45:40.233Z,959.5
2023-03-27T02:47:23.941Z,960.8
2023-03-27T02:49:07.635Z,961.4
2023-03-27T02:50:51.338Z,955.5
2023-03-27T02:52:35.048Z,946.5
2023-03-27T02:54:18.756Z,940.6
2023-03-27T02:56:02.455Z,939.7
2023-03-27T02:57:46.157Z,939.7
2023-03-27T02:59:29.855Z,943
2023-03-27T03:01:13.563Z,943.8
2023-03-27T03:02:57.265Z,944.9
2023-03-27T03:04:40.967Z,945.6
2023-03-27T03:06:24.668Z,947.2
2023-03-27T03:08:08.379Z,954
2023-03-27T03:09:52.081Z,956
2023-03-27T03:11:35.778Z,956.7
2023-03-27T03:13:19.509Z,955.4
2023-03-27T03:15:03.285Z,957.7
2023-03-27T03:16:46.906Z,962
2023-03-27T03:18:30.587Z,962.1
2023-03-27T03:20:14.289Z,961.6
2023-03-27T03:21:57.992Z,960.9
2023-03-27T03:23:41.696Z,958.5
2023-03-27T03:25:25.395Z,955.6
2023-03-27T03:27:09.111Z,954.2
2023-03-27T03:28:52.807Z,953.6
2023-03-27T03:30:36.506Z,956.3
2023-03-27T03:32:20.206Z,957.2
2023-03-27T03:34:03.906Z,959.2
2023-03-27T03:35:47.752Z,958.3
2023-03-27T03:37:31.314Z,958.8
2023-03-27T03:39:15.021Z,958.4
2023-03-27T03:40:58.725Z,957.8
2023-03-27T03:42:42.458Z,960.1
2023-03-27T03:44:26.138Z,956.8
2023-03-27T03:46:09.831Z,956.3
2023-03-27T03:47:53.541Z,957.1
2023-03-27T03:49:37.252Z,959.8
2023-03-27T03:51:20.952Z,962
2023-03-27T03:53:04.673Z,960.1
2023-03-27T03:54:48.343Z,954.8
2023-03-27T03:56:32.071Z,955
2023-03-27T03:58:15.745Z,956.4
2023-03-27T03:59:59.447Z,957.8
2023-03-27T04:01:43.154Z,960.8
2023-03-27T04:03:26.861Z,963.9
2023-03-27T04:05:10.556Z,959.9
2023-03-27T04:06:54.264Z,960.5
2023-03-27T04:08:37.966Z,962.8
2023-03-27T04:10:21.666Z,966.1
2023-03-27T04:12:05.363Z,969.7
2023-03-27T04:13:49.086Z,974.8
2023-03-27T04:15:32.769Z,975.2
2023-03-27T04:17:16.527Z,971.8
2023-03-27T04:19:00.175Z,970.2
2023-03-27T04:20:43.880Z,969.6
2023-03-27T04:22:27.568Z,968.1
2023-03-27T04:24:11.281Z,971.4
2023-03-27T04:25:54.987Z,976.3
2023-03-27T04:27:38.698Z,978.9
2023-03-27T04:29:22.396Z,975.4
2023-03-27T04:31:06.135Z,978.8
2023-03-27T04:32:49.796Z,982.3
2023-03-27T04:34:33.523Z,984.5
2023-03-27T04:36:17.203Z,983.8
2023-03-27T04:38:00.911Z,985.9
2023-03-27T04:39:44.621Z,984.6
2023-03-27T04:41:28.321Z,979.9
2023-03-27T04:43:12.027Z,978.3
2023-03-27T04:44:55.719Z,982.1
2023-03-27T04:46:39.429Z,982.9
2023-03-27T04:48:23.142Z,986.4
2023-03-27T04:50:06.828Z,984.9
2023-03-27T04:51:50.533Z,988.3
2023-03-27T04:53:34.243Z,989.7
2023-03-27T04:55:17.947Z,989.1
2023-03-27T04:57:01.643Z,988
2023-03-27T04:58:45.351Z,987.8
2023-03-27T05:00:29.062Z,989.1
2023-03-27T05:02:12.760Z,992.4
2023-03-27T05:03:56.453Z,990.3
2023-03-27T05:05:40.162Z,994.5
2023-03-27T05:07:23.863Z,994.6
2023-03-27T05:09:07.559Z,991.5
2023-03-27T05:10:51.274Z,993.9
2023-03-27T05:12:34.971Z,1045.9
2023-03-27T05:14:18.715Z,1043.5
2023-03-27T05:16:02.382Z,1034.7
2023-03-27T05:17:46.077Z,1034.4
2023-03-27T05:19:29.805Z,1046.7
2023-03-27T05:21:13.482Z,1061.2
2023-03-27T05:22:57.182Z,1079.6
2023-03-27T05:24:40.899Z,1094.3
2023-03-27T05:26:24.586Z,1105.9
2023-03-27T05:28:08.299Z,1123.6
2023-03-27T05:29:52.001Z,1133.9
2023-03-27T05:31:35.702Z,1145.4
2023-03-27T05:33:19.400Z,1144.9
2023-03-27T05:35:03.102Z,1149
2023-03-27T05:36:46.805Z,1166.7
2023-03-27T05:38:30.510Z,1187.1
2023-03-27T05:40:14.204Z,1194.7
2023-03-27T05:43:41.618Z,1208.8
2023-03-27T05:45:25.317Z,1218.5
2023-03-27T05:47:09.019Z,1228.4
2023-03-27T05:48:52.727Z,1228.3
2023-03-27T05:50:36.422Z,1227.9
2023-03-27T05:52:20.120Z,1231.3
2023-03-27T05:54:03.839Z,1262.7
2023-03-27T05:55:47.546Z,1273
2023-03-27T05:57:31.236Z,1273.6
2023-03-27T05:59:14.936Z,1259.3
2023-03-27T06:00:58.653Z,1255.9
2023-03-27T06:02:42.355Z,1263
2023-03-27T06:04:26.043Z,1268.7
2023-03-27T06:06:09.750Z,1267.4
2023-03-27T06:07:53.462Z,1270.5
2023-03-27T06:09:37.150Z,1273.7
2023-03-27T06:11:20.856Z,1277
2023-03-27T06:13:04.591Z,1281
2023-03-27T06:14:48.247Z,1285.4
2023-03-27T06:16:31.972Z,1282.9
2023-03-27T06:18:15.675Z,1280.1
2023-03-27T06:19:59.375Z,1277.7
2023-03-27T06:21:43.080Z,1275.6
2023-03-27T06:23:26.784Z,1276.2
2023-03-27T06:25:10.488Z,1280.9
2023-03-27T06:26:54.193Z,1279.1
2023-03-27T06:28:37.886Z,1277.6
2023-03-27T06:30:21.588Z,1275.6
2023-03-27T06:32:05.291Z,1266.7
2023-03-27T06:33:48.999Z,1267.7
2023-03-27T06:35:32.697Z,1271.2
2023-03-27T06:37:16.393Z,1269.4
2023-03-27T06:39:00.106Z,1266.1
2023-03-27T06:40:43.807Z,1264.3
2023-03-27T06:42:27.505Z,1267.6
2023-03-27T06:44:11.207Z,1267.4
2023-03-27T06:45:54.909Z,1268.3
2023-03-27T06:47:38.614Z,1264.5
2023-03-27T06:49:22.370Z,1260.1
2023-03-27T06:51:06.017Z,1257.3
2023-03-27T06:52:49.725Z,1253.5
2023-03-27T06:54:33.429Z,1254.4
2023-03-27T06:56:17.129Z,1249
2023-03-27T06:58:00.823Z,1251.3
2023-03-27T06:59:44.534Z,1248.3
2023-03-27T07:01:28.241Z,1238.5
2023-03-27T07:03:11.941Z,1243.4
2023-03-27T07:04:55.748Z,1249.4
2023-03-27T07:06:39.457Z,1233.5
2023-03-27T07:08:23.055Z,1227.5
2023-03-27T07:10:06.739Z,1228
2023-03-27T07:11:50.441Z,1221.9
2023-03-27T07:13:34.163Z,1222.3
2023-03-27T07:15:17.856Z,1222.9
2023-03-27T07:17:01.570Z,1225.8
2023-03-27T07:18:45.383Z,1224.9
2023-03-27T07:20:28.964Z,1223.7
2023-03-27T07:22:12.658Z,1224.7
2023-03-27T07:23:56.359Z,1225.6
2023-03-27T07:25:40.055Z,1225.4
2023-03-27T07:27:23.769Z,1221.7
2023-03-27T07:29:07.456Z,1217
2023-03-27T07:30:51.179Z,1216
2023-03-27T07:32:34.935Z,1213.1
2023-03-27T07:34:18.576Z,1212.2
2023-03-27T07:36:02.268Z,1208.8
2023-03-27T07:37:46.011Z,1213
2023-03-27T07:39:29.701Z,1210.6
2023-03-27T07:41:13.382Z,1207.9
2023-03-27T07:42:57.085Z,1202.4
2023-03-27T07:44:40.841Z,1200
2023-03-27T07:46:24.493Z,1199.1
2023-03-27T07:48:08.205Z,1196.7
2023-03-27T07:49:51.904Z,1197.3
2023-03-27T07:51:35.722Z,1198.5
2023-03-27T07:53:19.306Z,1195.9
2023-03-27T07:55:03.317Z,1192.2
2023-03-27T07:56:46.831Z,1191.3
2023-03-27T07:58:30.410Z,1193.6
2023-03-27T08:00:14.263Z,1186.5
2023-03-27T08:01:57.816Z,1186.5
2023-03-27T08:03:41.536Z,1189.4
2023-03-27T08:05:25.251Z,1191.3
2023-03-27T08:07:08.928Z,1189.8
2023-03-27T08:08:52.690Z,1187.7
2023-03-27T08:10:36.329Z,1188.9
2023-03-27T08:12:20.029Z,1190.7
2023-03-27T08:14:03.779Z,1191.6
2023-03-27T08:15:47.443Z,1190.3
2023-03-27T08:17:31.142Z,1189
2023-03-27T08:19:14.838Z,1185.9
2023-03-27T08:20:58.547Z,1182.1
2023-03-27T08:22:42.267Z,1180.5
2023-03-27T08:24:25.943Z,1177.4
2023-03-27T08:26:09.647Z,1216.9
2023-03-27T08:27:53.360Z,1271.1
2023-03-27T08:29:37.049Z,1257.8
2023-03-27T08:31:20.761Z,1202.6
2023-03-27T08:33:04.463Z,1229.2
2023-03-27T08:34:48.164Z,1371.7
2023-03-27T08:36:31.866Z,1409.7
2023-03-27T08:38:15.558Z,1418.2
2023-03-27T08:39:59.269Z,1269.6
2023-03-27T08:41:42.974Z,1256.3
2023-03-27T08:43:26.669Z,1251.7
2023-03-27T08:45:10.388Z,1246.8
2023-03-27T08:50:21.475Z,1258
2023-03-27T08:52:05.169Z,1265
2023-03-27T08:53:48.961Z,1284.8
2023-03-27T08:55:32.600Z,1297.7
2023-03-27T08:57:16.286Z,1294.5
2023-03-27T08:58:59.997Z,1292.4
2023-03-27T09:00:43.692Z,1288.9
2023-03-27T09:02:27.393Z,1288.7
2023-03-27T09:04:11.100Z,1284.5
2023-03-27T09:05:54.808Z,1277.6
2023-03-27T09:07:38.504Z,1270.5
2023-03-27T09:09:22.219Z,1264
2023-03-27T09:11:05.908Z,1255.9
2023-03-27T09:12:49.615Z,1253.7
2023-03-27T09:14:33.319Z,1250.7
2023-03-27T09:16:17.017Z,1245.6
2023-03-27T09:18:00.727Z,1239.1
2023-03-27T09:19:44.426Z,1240.7
2023-03-27T09:21:28.119Z,1237.7
2023-03-27T09:23:11.826Z,1236.4
2023-03-27T09:24:55.523Z,1236.7
2023-03-27T09:26:39.238Z,1235.4
2023-03-27T09:30:06.628Z,1243.7
2023-03-27T09:31:50.343Z,1251
2023-03-27T09:33:34.038Z,1253.3
2023-03-27T09:35:17.742Z,1249.6
2023-03-27T09:37:01.436Z,1246.1
2023-03-27T09:38:45.147Z,1244.3
2023-03-27T09:40:28.861Z,1241.1
2023-03-27T09:42:12.548Z,1236.4
2023-03-27T09:43:56.244Z,1232.1
2023-03-27T09:45:39.960Z,1231.2
2023-03-27T09:47:23.651Z,1226.8
2023-03-27T09:49:07.356Z,1223.4
2023-03-27T09:50:51.054Z,1219.7
2023-03-27T09:52:34.767Z,1215.5
2023-03-27T09:54:18.461Z,1213.9
2023-03-27T09:56:02.191Z,1212.7
2023-03-27T09:57:45.860Z,1208.4
2023-03-27T09:59:29.580Z,1199.4
2023-03-27T10:01:13.272Z,1195.1
2023-03-27T10:02:56.987Z,1191.3
2023-03-27T10:04:40.682Z,1179.9
2023-03-27T10:06:24.376Z,1174.6
2023-03-27T10:08:08.088Z,1172.5
2023-03-27T10:09:51.787Z,1172.1
2023-03-27T10:11:35.495Z,1168.2
2023-03-27T10:13:19.198Z,1162.4
2023-03-27T10:15:02.916Z,1157.4
2023-03-27T10:16:46.639Z,1155.3
2023-03-27T10:18:30.355Z,1151.5
2023-03-27T10:20:14.009Z,1148.5
2023-03-27T10:21:57.713Z,1147.2
2023-03-27T10:23:41.423Z,1150.2
2023-03-27T10:25:25.114Z,1150
2023-03-27T10:27:08.816Z,1151.6
2023-03-27T10:28:52.527Z,1144.8
2023-03-27T10:30:36.222Z,1141.1
2023-03-27T10:32:19.929Z,1134.5
2023-03-27T10:34:03.651Z,1134.8
2023-03-27T10:35:47.329Z,1134.6
2023-03-27T10:37:31.199Z,1133.9
2023-03-27T10:39:15.045Z,1133.5
2023-03-27T10:40:58.598Z,1130.5
2023-03-27T10:42:42.150Z,1128.8
2023-03-27T10:44:25.932Z,1123.4
2023-03-27T10:46:09.640Z,1118
2023-03-27T10:47:53.251Z,1114.6
2023-03-27T10:49:36.966Z,1113.7
2023-03-27T10:51:20.652Z,1116.9
2023-03-27T10:53:04.572Z,1114.1
2023-03-27T10:54:48.057Z,1109.1
2023-03-27T10:56:31.794Z,1103.9
2023-03-27T10:58:15.604Z,1100.1
2023-03-27T10:59:59.335Z,1097.2
2023-03-27T11:01:42.871Z,1090.3
2023-03-27T11:03:26.642Z,1083.8
2023-03-27T11:05:10.336Z,1082.7
2023-03-27T11:06:53.996Z,1081.3
2023-03-27T11:08:37.672Z,1083.1
2023-03-27T11:10:21.418Z,1080
2023-03-27T11:12:05.089Z,1074.9
2023-03-27T11:13:48.787Z,1066
2023-03-27T11:15:32.488Z,1062.8
2023-03-27T11:17:16.189Z,1058.7
2023-03-27T11:18:59.894Z,1043.3
2023-03-27T11:20:43.628Z,1039.3
2023-03-27T11:22:27.300Z,1038.4
2023-03-27T11:24:11.044Z,1040.3
2023-03-27T11:25:54.710Z,1041
2023-03-27T11:27:38.409Z,1042.6
2023-03-27T11:29:22.112Z,1040.2
2023-03-27T11:31:05.816Z,1030.6
2023-03-27T11:32:49.507Z,1021
2023-03-27T11:34:33.242Z,1016.4
2023-03-27T11:36:16.921Z,1016
2023-03-27T11:38:00.611Z,1016.3
2023-03-27T11:39:44.334Z,1016.6
2023-03-27T11:41:28.080Z,1016
2023-03-27T11:43:11.797Z,1015.4
2023-03-27T11:44:55.575Z,1015.5
2023-03-27T11:46:39.133Z,1015.5
2023-03-27T11:48:22.833Z,1016.6
2023-03-27T11:50:06.542Z,1011.7
2023-03-27T11:51:50.237Z,1007.7
2023-03-27T11:53:33.933Z,1004.6
2023-03-27T11:55:17.662Z,1003.1
2023-03-27T11:57:01.402Z,1005
2023-03-27T11:58:45.058Z,1004.9
2023-03-27T12:00:28.756Z,998.6
2023-03-27T12:02:12.578Z,993.4
2023-03-27T12:03:56.162Z,992.4
2023-03-27T12:05:39.858Z,991.9
2023-03-27T12:07:23.563Z,993.6
2023-03-27T12:09:07.264Z,989.1
2023-03-27T12:10:50.978Z,988.8
2023-03-27T12:12:34.678Z,984.6
2023-03-27T12:14:18.364Z,983.2
2023-03-27T12:16:02.079Z,982.1
2023-03-27T12:17:45.774Z,976.8
2023-03-27T12:19:29.497Z,975.1
2023-03-27T12:21:13.182Z,976.5
2023-03-27T12:22:56.889Z,973.6
2023-03-27T12:24:40.589Z,969.6
2023-03-27T12:26:24.291Z,970.2
2023-03-27T12:28:07.990Z,969.2
2023-03-27T12:29:51.692Z,958.2
2023-03-27T12:31:35.412Z,949.9
2023-03-27T12:33:19.090Z,953.1
2023-03-27T12:35:02.816Z,1029.6
2023-03-27T12:36:46.510Z,1041.1
2023-03-27T12:38:30.208Z,1019
2023-03-27T12:40:13.908Z,980.8
2023-03-27T12:41:57.667Z,978.3
2023-03-27T12:43:41.316Z,978.3
2023-03-27T12:45:25.027Z,973
2023-03-27T12:47:08.716Z,970.1
2023-03-27T12:48:52.439Z,968.2
2023-03-27T12:50:36.119Z,968.3
2023-03-27T12:52:19.823Z,969.9
2023-03-27T12:54:03.529Z,971.8
2023-03-27T12:55:47.223Z,969
2023-03-27T12:57:30.930Z,965.8
2023-03-27T12:59:14.629Z,963.3
2023-03-27T13:00:58.349Z,963.4
2023-03-27T13:02:42.042Z,966.7
2023-03-27T13:04:25.746Z,963.9
2023-03-27T13:06:09.447Z,961.5
2023-03-27T13:07:53.149Z,959.3
2023-03-27T13:09:36.857Z,955.7
2023-03-27T13:11:20.569Z,959.1
2023-03-27T13:13:04.257Z,1021.5
2023-03-27T13:14:47.984Z,1020
2023-03-27T13:16:31.664Z,1012.2
2023-03-27T13:18:15.368Z,988.7
2023-03-27T13:19:59.060Z,970.9
2023-03-27T13:21:42.787Z,967.8
2023-03-27T13:23:26.476Z,963.2
2023-03-27T13:25:10.220Z,958.5
2023-03-27T13:26:53.877Z,956.6
2023-03-27T13:28:37.578Z,952.4
2023-03-27T13:30:21.268Z,951.2
2023-03-27T13:32:05.009Z,948.4
2023-03-27T13:33:48.683Z,946.9
2023-03-27T13:35:32.381Z,948.3
2023-03-27T13:37:16.090Z,945.7
2023-03-27T13:38:59.794Z,941.1
2023-03-27T13:40:43.498Z,940.6
2023-03-27T13:42:27.225Z,942.5
2023-03-27T13:44:10.898Z,948.3
2023-03-27T13:45:54.610Z,986.8
2023-03-27T13:47:38.335Z,1021.6
2023-03-27T13:49:22.017Z,1018.8
2023-03-27T13:51:05.711Z,1018.4
2023-03-27T13:52:49.425Z,1016.7
2023-03-27T13:54:33.114Z,1015.4
2023-03-27T13:56:16.826Z,1008.7
2023-03-27T13:58:00.587Z,1005
2023-03-27T13:59:44.224Z,991.1
2023-03-27T14:01:27.925Z,985.3
2023-03-27T14:03:11.624Z,980.7
2023-03-27T14:04:55.335Z,979.8
2023-03-27T14:06:39.030Z,979.1
2023-03-27T14:08:22.727Z,975
2023-03-27T14:10:06.441Z,973.3
2023-03-27T14:11:50.156Z,974.8
2023-03-27T14:13:33.852Z,974
2023-03-27T14:15:17.543Z,972.3
2023-03-27T14:17:01.329Z,968.6
2023-03-27T14:18:44.958Z,968.8
2023-03-27T14:20:28.657Z,967.5
2023-03-27T14:22:12.345Z,967
2023-03-27T14:23:56.095Z,964.7
2023-03-27T14:25:39.764Z,966.8
2023-03-27T14:27:23.455Z,963.1
2023-03-27T14:29:07.161Z,958.5
2023-03-27T14:30:50.862Z,957.8
2023-03-27T14:32:34.572Z,958.2
2023-03-27T14:34:18.274Z,958.8
2023-03-27T14:36:01.966Z,977.8
2023-03-27T14:37:45.672Z,1012.4
2023-03-27T14:39:29.379Z,1009.3
2023-03-27T14:41:13.069Z,1000.1
2023-03-27T14:42:56.847Z,990.1
2023-03-27T14:44:40.489Z,982.3
2023-03-27T14:46:24.180Z,975.5
2023-03-27T14:48:07.908Z,972.9
2023-03-27T14:49:51.595Z,972.9
2023-03-27T14:51:35.279Z,969.5
2023-03-27T14:53:19.049Z,962.6
2023-03-27T14:55:02.692Z,960.2
2023-03-27T14:56:46.405Z,958.1
2023-03-27T14:58:30.109Z,958.1
2023-03-27T15:00:13.803Z,959
2023-03-27T15:01:57.514Z,971
2023-03-27T15:03:41.210Z,978.2
2023-03-27T15:05:24.914Z,980
2023-03-27T15:07:08.612Z,980.1
2023-03-27T15:08:52.322Z,979.8
2023-03-27T15:10:36.036Z,981.9
2023-03-27T15:12:19.722Z,987.3
2023-03-27T15:14:03.432Z,1034.9
2023-03-27T15:15:47.150Z,1088.5
2023-03-27T15:17:30.835Z,1093.2
2023-03-27T15:19:14.530Z,1094.9
2023-03-27T15:20:58.243Z,1101.8
2023-03-27T15:22:41.954Z,1107.3
2023-03-27T15:24:25.690Z,1108.3
2023-03-27T15:26:09.421Z,1103.7
2023-03-27T15:27:53.161Z,1100.9
2023-03-27T15:29:36.798Z,1094.7
2023-03-27T15:31:20.441Z,1092
2023-03-27T15:33:04.147Z,1092.5
2023-03-27T15:34:47.852Z,1088
2023-03-27T15:36:31.575Z,1078.3
2023-03-27T15:38:15.290Z,1081.4
2023-03-27T15:39:59.016Z,1077.4
2023-03-27T15:41:42.668Z,1075.5
2023-03-27T15:43:26.380Z,1069.2
2023-03-27T15:45:10.066Z,1063.9
2023-03-27T15:46:53.819Z,1061.4
2023-03-27T15:48:37.461Z,1064.9
2023-03-27T15:50:21.175Z,1065.5
2023-03-27T15:52:04.885Z,1061.3
2023-03-27T15:53:48.589Z,1067.5
2023-03-27T15:55:32.269Z,1078.7
2023-03-27T15:57:15.979Z,1079.2
2023-03-27T15:58:59.869Z,1079.5
2023-03-27T16:00:43.393Z,1079.8
2023-03-27T16:02:27.078Z,1078.3
2023-03-27T16:04:10.803Z,1078.1
2023-03-27T16:05:54.491Z,1076.6
2023-03-27T16:07:38.287Z,1068.3
2023-03-27T16:09:21.902Z,1058.2
2023-03-27T16:11:05.691Z,1060.3
2023-03-27T16:12:49.320Z,1057.5
2023-03-27T16:14:33.082Z,1054.9
2023-03-27T16:16:16.705Z,1052.9
2023-03-27T16:18:00.409Z,1054.8
2023-03-27T16:19:44.116Z,1056.5
2023-03-27T16:21:27.839Z,1053.8
2023-03-27T16:23:11.526Z,1046.8
2023-03-27T16:24:55.226Z,1041.9
2023-03-27T16:26:38.920Z,1034.9
2023-03-27T16:28:22.622Z,1035.2
2023-03-27T16:30:06.336Z,1039.5
2023-03-27T16:31:50.020Z,1037
2023-03-27T16:33:33.741Z,1037.4
2023-03-27T16:35:17.453Z,1033.5
2023-03-27T16:37:01.140Z,1026.5
2023-03-27T16:40:28.547Z,1019.1
2023-03-27T16:42:12.259Z,1019.7
2023-03-27T16:43:55.963Z,1018.2
2023-03-27T16:45:39.653Z,1015.9
2023-03-27T16:47:23.385Z,1018.8
2023-03-27T16:49:07.060Z,1016.4
2023-03-27T16:50:50.804Z,1015.3
2023-03-27T16:52:34.463Z,1019.3
2023-03-27T16:54:18.196Z,1018
2023-03-27T16:56:01.895Z,1014.2
2023-03-27T16:57:45.573Z,1010.1
2023-03-27T16:59:29.310Z,1007.2
2023-03-27T17:01:13.005Z,1003.7
2023-03-27T17:02:56.683Z,1004.4
2023-03-27T17:04:40.377Z,1000.9
2023-03-27T17:06:24.087Z,995.1
2023-03-27T17:08:07.781Z,995.3
2023-03-27T17:09:51.492Z,992.5
2023-03-27T17:11:35.191Z,990.2
2023-03-27T17:13:18.906Z,988.5
2023-03-27T17:15:02.633Z,989.3
2023-03-27T17:16:46.297Z,983.4
2023-03-27T17:18:29.991Z,979.8
2023-03-27T17:20:13.705Z,977.9
2023-03-27T17:21:57.409Z,974.9
2023-03-27T17:23:41.108Z,971.8
2023-03-27T17:25:24.811Z,969.2
2023-03-27T17:27:08.526Z,969.7
2023-03-27T17:28:52.210Z,967.6
2023-03-27T17:30:35.919Z,966.8
2023-03-27T17:32:19.630Z,964.2
2023-03-27T17:34:03.324Z,960.3
2023-03-27T17:35:47.031Z,959.1
2023-03-27T17:37:30.740Z,961.5
2023-03-27T17:39:14.446Z,960
2023-03-27T17:40:58.156Z,958.6
2023-03-27T17:42:41.844Z,959.7
2023-03-27T17:44:25.552Z,958.9
2023-03-27T17:46:09.252Z,958.7
2023-03-27T17:47:52.977Z,956.9
2023-03-27T17:49:36.671Z,954.3
2023-03-27T17:51:20.391Z,953.6
2023-03-27T17:53:04.077Z,951.6
2023-03-27T17:54:47.767Z,949.6
2023-03-27T17:56:31.465Z,948.5
2023-03-27T17:58:15.173Z,951.2
2023-03-27T17:59:58.882Z,953.2
2023-03-27T18:01:42.568Z,955.1
2023-03-27T18:03:26.272Z,953.9
2023-03-27T18:05:09.988Z,956.4
2023-03-27T18:06:53.710Z,957.7
2023-03-27T18:10:21.091Z,970.2
2023-03-27T18:12:04.800Z,976.6
2023-03-27T18:13:48.502Z,979
2023-03-27T18:15:32.199Z,980.8
2023-03-27T18:17:15.902Z,982.5
2023-03-27T18:18:59.760Z,986
2023-03-27T18:22:27.010Z,986.5
2023-03-27T18:24:10.737Z,998.8
2023-03-27T18:25:54.405Z,1002.9
2023-03-27T18:27:38.114Z,1008.3
2023-03-27T18:29:21.816Z,1012.4
2023-03-27T18:31:05.527Z,1013.1
2023-03-27T18:32:49.224Z,1029.1
2023-03-27T18:34:32.916Z,1035.3
2023-03-27T18:36:16.658Z,1037.2
2023-03-27T18:38:00.351Z,1038.2
2023-03-27T18:39:44.022Z,1036.2
2023-03-27T18:41:27.749Z,1036.1
2023-03-27T18:43:11.434Z,1036.8
2023-03-27T18:44:55.139Z,1038.4
2023-03-27T18:46:38.836Z,1035.3
2023-03-27T18:48:22.540Z,1033.6
2023-03-27T18:50:06.255Z,1034.7
2023-03-27T18:51:49.951Z,1032.8
2023-03-27T18:53:33.652Z,1030.1
2023-03-27T18:55:17.391Z,1026
2023-03-27T18:57:01.088Z,1022.8
2023-03-27T18:58:44.750Z,1022.4
2023-03-27T19:00:28.489Z,1021.9
2023-03-27T19:02:12.166Z,1023.3
2023-03-27T19:03:55.862Z,1015.8
2023-03-27T19:05:39.571Z,1014.9
2023-03-27T19:07:23.312Z,1020.1
2023-03-27T19:09:06.980Z,1024.5
2023-03-27T19:10:50.682Z,1030.9
2023-03-27T19:12:34.376Z,1028.9
2023-03-27T19:14:18.091Z,1023.7
2023-03-27T19:17:45.557Z,1023.8
2023-03-27T19:19:29.205Z,1026.5
2023-03-27T19:21:12.888Z,1025.9
2023-03-27T19:22:56.585Z,1023.9
2023-03-27T19:24:40.296Z,1020.7
2023-03-27T19:26:23.987Z,1021.6
2023-03-27T19:28:07.704Z,1026.3
2023-03-27T19:29:51.417Z,1030.3
2023-03-27T19:31:35.104Z,1033.9
2023-03-27T19:33:18.804Z,1032
2023-03-27T19:35:02.504Z,1034.6
2023-03-27T19:36:46.213Z,1038.5
2023-03-27T19:38:29.972Z,1042.3
2023-03-27T19:40:13.610Z,1043
2023-03-27T19:41:57.351Z,1040
2023-03-27T19:43:41.016Z,1037.5
2023-03-27T19:45:24.712Z,1035.4
2023-03-27T19:47:08.435Z,1036.3
2023-03-27T19:48:52.158Z,1030.7
2023-03-27T19:50:35.834Z,1029.6
2023-03-27T19:52:19.546Z,1028.8
2023-03-27T19:54:03.255Z,1026.7
2023-03-27T19:55:46.932Z,1025.4
2023-03-27T19:57:30.744Z,1025.6
2023-03-27T19:59:14.340Z,1022.4
2023-03-27T20:00:58.058Z,1026.5
2023-03-27T20:02:41.749Z,1036.9
2023-03-27T20:04:25.465Z,1047.9
2023-03-27T20:06:09.153Z,1057
2023-03-27T20:07:52.853Z,1050.2
2023-03-27T20:09:36.563Z,1044.2
2023-03-27T20:11:20.271Z,1029.4
2023-03-27T20:13:03.962Z,1022.5
2023-03-27T20:14:47.665Z,1013.2
2023-03-27T20:16:31.385Z,1014.8
2023-03-27T20:18:15.064Z,1014.8
2023-03-27T20:19:58.773Z,1011.4
2023-03-27T20:21:42.497Z,1012.3
2023-03-27T20:23:26.181Z,1007
2023-03-27T20:25:09.883Z,994
2023-03-27T20:26:53.583Z,991.6
2023-03-27T20:28:37.306Z,994.5
2023-03-27T20:30:21.002Z,991.9
2023-03-27T20:32:04.695Z,994
2023-03-27T20:33:48.393Z,994.8
2023-03-27T20:35:32.104Z,991.9
2023-03-27T20:37:15.781Z,994.8
2023-03-27T20:38:59.505Z,998.6
2023-03-27T20:40:43.204Z,1012.9
2023-03-27T20:42:26.904Z,1027
2023-03-27T20:44:10.617Z,1004
2023-03-27T20:45:54.315Z,997.6
2023-03-27T20:47:38.016Z,1003.8
2023-03-27T20:49:21.721Z,1006
2023-03-27T20:51:05.414Z,1008.4
2023-03-27T20:54:32.838Z,1009
2023-03-27T20:56:16.525Z,1010.9
2023-03-27T20:58:00.236Z,1012.6
2023-03-27T20:59:43.932Z,1017.8
2023-03-27T21:01:27.652Z,1022.1
2023-03-27T21:03:11.336Z,1025.7
2023-03-27T21:04:55.056Z,1022.9
2023-03-27T21:06:38.730Z,1018.8
2023-03-27T21:08:22.437Z,1015.1
2023-03-27T21:10:06.144Z,1009.5
2023-03-27T21:11:49.850Z,1011.5
2023-03-27T21:13:33.606Z,1013.3
2023-03-27T21:15:17.261Z,1013.7
2023-03-27T21:17:00.956Z,1011.4
2023-03-27T21:18:44.662Z,1004.6
2023-03-27T21:22:12.061Z,996.4
2023-03-27T21:23:55.801Z,998.3
2023-03-27T21:25:39.468Z,996.9
2023-03-27T21:27:23.168Z,1022.9
2023-03-27T21:29:06.979Z,1097.7
2023-03-27T21:30:50.648Z,1105.9
2023-03-27T21:32:34.369Z,1118.4
2023-03-27T21:34:18.144Z,1144.3
2023-03-27T21:36:01.841Z,1137.4
2023-03-27T21:37:45.382Z,1122.3
2023-03-27T21:39:29.082Z,1114.7
2023-03-27T21:41:12.796Z,1106.9
2023-03-27T21:42:56.492Z,1091.7
2023-03-27T21:44:40.216Z,1080.1
2023-03-27T21:46:23.894Z,1084
2023-03-27T21:48:07.598Z,1082.3
2023-03-27T21:49:51.305Z,1083.5
2023-03-27T21:51:35.011Z,1085
2023-03-27T21:53:18.783Z,1088.4
2023-03-27T21:55:02.481Z,1087.5
2023-03-27T21:56:46.136Z,1087.9
2023-03-27T21:58:29.815Z,1086.6
2023-03-27T22:00:13.510Z,1085.7
2023-03-27T22:01:57.227Z,1086.3
2023-03-27T22:03:40.952Z,1088.3
2023-03-27T22:05:24.630Z,1088.8
2023-03-27T22:07:08.335Z,1087
2023-03-27T22:08:52.087Z,1082.8
2023-03-27T22:10:35.736Z,1085
2023-03-27T22:12:19.465Z,1084.8
2023-03-27T22:14:03.220Z,1083.7
2023-03-27T22:15:46.851Z,1087